sensor_id;sensor_type;location;lat;lon;timestamp;temperature;humidity
40996;DHT22;26723;57.478;12.066;2023-06-22T00:02:23;17.70;99.90
40996;DHT22;26723;57.478;12.066;2023-06-22T00:05:31;17.60;99.90
40996;DHT22;26723;57.478;12.066;2023-06-22T00:08:40;17.60;99.90
40996;DHT22;26723;57.478;12.066;2023-06-22T00:11:50;17.60;99.90
40996;DHT22;26723;57.478;12.066;2023-06-22T00:14:58;17.60;99.90
40996;DHT22;26723;57.478;12.066;2023-06-22T00:18:08;17.60;99.90
40996;DHT22;26723;57.478;12.066;2023-06-22T00:21:16;17.60;99.90
40996;DHT22;26723;57.478;12.066;2023-06-22T00:24:27;17.60;99.90
40996;DHT22;26723;57.478;12.066;2023-06-22T00:27:37;17.50;99.90
40996;DHT22;26723;57.478;12.066;2023-06-22T00:30:46;17.50;99.90
40996;DHT22;26723;57.478;12.066;2023-06-22T00:33:55;17.50;99.90
40996;DHT22;26723;57.478;12.066;2023-06-22T00:37:04;17.60;99.90
40996;DHT22;26723;57.478;12.066;2023-06-22T00:40:14;17.50;99.90
40996;DHT22;26723;57.478;12.066;2023-06-22T00:43:24;17.50;99.90
40996;DHT22;26723;57.478;12.066;2023-06-22T00:46:33;17.50;99.90
40996;DHT22;26723;57.478;12.066;2023-06-22T00:49:41;17.40;99.90
40996;DHT22;26723;57.478;12.066;2023-06-22T00:52:52;17.40;99.90
40996;DHT22;26723;57.478;12.066;2023-06-22T00:56:01;17.40;99.90
40996;DHT22;26723;57.478;12.066;2023-06-22T00:59:12;17.40;99.90
40996;DHT22;26723;57.478;12.066;2023-06-22T01:02:21;17.40;99.90
40996;DHT22;26723;57.478;12.066;2023-06-22T01:05:31;17.40;99.90
40996;DHT22;26723;57.478;12.066;2023-06-22T01:08:44;17.40;99.90
40996;DHT22;26723;57.478;12.066;2023-06-22T01:11:57;17.40;99.90
40996;DHT22;26723;57.478;12.066;2023-06-22T01:15:11;17.40;99.90
40996;DHT22;26723;57.478;12.066;2023-06-22T01:18:22;17.40;99.90
40996;DHT22;26723;57.478;12.066;2023-06-22T01:21:33;17.40;99.90
40996;DHT22;26723;57.478;12.066;2023-06-22T01:24:49;17.30;99.90
40996;DHT22;26723;57.478;12.066;2023-06-22T01:28:17;17.20;99.90
40996;DHT22;26723;57.478;12.066;2023-06-22T01:31:29;17.20;99.90
40996;DHT22;26723;57.478;12.066;2023-06-22T01:34:40;17.10;99.90
40996;DHT22;26723;57.478;12.066;2023-06-22T01:37:50;17.10;99.90
40996;DHT22;26723;57.478;12.066;2023-06-22T01:40:59;17.00;99.90
40996;DHT22;26723;57.478;12.066;2023-06-22T01:44:09;17.00;99.90
40996;DHT22;26723;57.478;12.066;2023-06-22T01:47:19;17.00;99.90
40996;DHT22;26723;57.478;12.066;2023-06-22T01:50:28;16.90;99.90
40996;DHT22;26723;57.478;12.066;2023-06-22T01:53:38;16.90;99.90
40996;DHT22;26723;57.478;12.066;2023-06-22T01:56:46;16.90;99.90
40996;DHT22;26723;57.478;12.066;2023-06-22T02:00:00;16.90;99.90
40996;DHT22;26723;57.478;12.066;2023-06-22T02:03:13;16.90;99.90
40996;DHT22;26723;57.478;12.066;2023-06-22T02:06:27;17.00;99.90
40996;DHT22;26723;57.478;12.066;2023-06-22T02:09:38;17.00;99.90
40996;DHT22;26723;57.478;12.066;2023-06-22T02:12:51;16.90;99.90
40996;DHT22;26723;57.478;12.066;2023-06-22T02:16:01;17.00;99.90
40996;DHT22;26723;57.478;12.066;2023-06-22T02:19:11;17.00;99.90
40996;DHT22;26723;57.478;12.066;2023-06-22T02:22:19;17.00;99.90
40996;DHT22;26723;57.478;12.066;2023-06-22T02:25:28;17.00;99.90
40996;DHT22;26723;57.478;12.066;2023-06-22T02:28:36;17.00;99.90
40996;DHT22;26723;57.478;12.066;2023-06-22T02:31:45;17.00;99.90
40996;DHT22;26723;57.478;12.066;2023-06-22T02:34:55;17.00;99.90
40996;DHT22;26723;57.478;12.066;2023-06-22T02:38:04;17.10;99.90
40996;DHT22;26723;57.478;12.066;2023-06-22T02:41:13;17.00;99.90
40996;DHT22;26723;57.478;12.066;2023-06-22T02:44:25;17.00;99.90
40996;DHT22;26723;57.478;12.066;2023-06-22T02:47:33;17.00;99.90
40996;DHT22;26723;57.478;12.066;2023-06-22T02:50:43;17.10;99.90
40996;DHT22;26723;57.478;12.066;2023-06-22T02:53:52;17.10;99.90
40996;DHT22;26723;57.478;12.066;2023-06-22T02:57:07;17.10;99.90
40996;DHT22;26723;57.478;12.066;2023-06-22T03:00:22;17.00;99.90
40996;DHT22;26723;57.478;12.066;2023-06-22T03:03:38;17.10;99.90
40996;DHT22;26723;57.478;12.066;2023-06-22T03:06:48;17.10;99.90
40996;DHT22;26723;57.478;12.066;2023-06-22T03:09:58;17.10;99.90
40996;DHT22;26723;57.478;12.066;2023-06-22T03:13:07;17.10;99.90
40996;DHT22;26723;57.478;12.066;2023-06-22T03:16:16;17.10;99.90
40996;DHT22;26723;57.478;12.066;2023-06-22T03:19:24;17.10;99.90
40996;DHT22;26723;57.478;12.066;2023-06-22T03:22:34;17.10;99.90
40996;DHT22;26723;57.478;12.066;2023-06-22T03:25:43;17.10;99.90
40996;DHT22;26723;57.478;12.066;2023-06-22T03:28:53;17.20;99.90
40996;DHT22;26723;57.478;12.066;2023-06-22T03:32:02;17.20;99.90
40996;DHT22;26723;57.478;12.066;2023-06-22T03:35:12;17.20;99.90
40996;DHT22;26723;57.478;12.066;2023-06-22T03:38:22;17.20;99.90
40996;DHT22;26723;57.478;12.066;2023-06-22T03:41:35;17.20;99.90
40996;DHT22;26723;57.478;12.066;2023-06-22T03:44:43;17.20;99.90
40996;DHT22;26723;57.478;12.066;2023-06-22T03:47:52;17.20;99.90
40996;DHT22;26723;57.478;12.066;2023-06-22T03:51:01;17.20;99.90
40996;DHT22;26723;57.478;12.066;2023-06-22T03:54:11;17.20;99.90
40996;DHT22;26723;57.478;12.066;2023-06-22T03:57:20;17.20;99.90
40996;DHT22;26723;57.478;12.066;2023-06-22T04:00:28;17.30;99.90
40996;DHT22;26723;57.478;12.066;2023-06-22T04:03:37;17.40;99.90
40996;DHT22;26723;57.478;12.066;2023-06-22T04:06:46;17.40;99.90
40996;DHT22;26723;57.478;12.066;2023-06-22T04:09:56;17.40;99.90
40996;DHT22;26723;57.478;12.066;2023-06-22T04:13:04;17.40;99.90
40996;DHT22;26723;57.478;12.066;2023-06-22T04:16:13;17.40;99.90
40996;DHT22;26723;57.478;12.066;2023-06-22T04:19:21;17.60;99.90
40996;DHT22;26723;57.478;12.066;2023-06-22T04:22:30;17.70;99.90
40996;DHT22;26723;57.478;12.066;2023-06-22T04:25:40;17.80;99.90
40996;DHT22;26723;57.478;12.066;2023-06-22T04:28:48;17.90;99.90
40996;DHT22;26723;57.478;12.066;2023-06-22T04:32:03;18.00;99.90
40996;DHT22;26723;57.478;12.066;2023-06-22T04:35:13;18.20;99.90
40996;DHT22;26723;57.478;12.066;2023-06-22T04:38:23;18.10;99.90
40996;DHT22;26723;57.478;12.066;2023-06-22T04:41:33;18.00;99.90
40996;DHT22;26723;57.478;12.066;2023-06-22T04:44:49;18.00;99.90
40996;DHT22;26723;57.478;12.066;2023-06-22T04:47:57;18.00;99.90
40996;DHT22;26723;57.478;12.066;2023-06-22T04:51:05;18.00;99.90
40996;DHT22;26723;57.478;12.066;2023-06-22T04:54:15;18.10;99.90
40996;DHT22;26723;57.478;12.066;2023-06-22T04:57:25;18.10;99.90
40996;DHT22;26723;57.478;12.066;2023-06-22T05:00:39;18.00;99.90
40996;DHT22;26723;57.478;12.066;2023-06-22T05:03:47;18.00;99.90
40996;DHT22;26723;57.478;12.066;2023-06-22T05:06:56;18.20;99.90
40996;DHT22;26723;57.478;12.066;2023-06-22T05:10:05;18.20;99.90
40996;DHT22;26723;57.478;12.066;2023-06-22T05:13:15;18.20;99.90
40996;DHT22;26723;57.478;12.066;2023-06-22T05:16:24;18.20;99.90
40996;DHT22;26723;57.478;12.066;2023-06-22T05:19:33;18.30;99.90
40996;DHT22;26723;57.478;12.066;2023-06-22T05:22:41;18.40;99.90
40996;DHT22;26723;57.478;12.066;2023-06-22T05:25:51;18.40;99.90
40996;DHT22;26723;57.478;12.066;2023-06-22T05:29:02;18.30;99.90
40996;DHT22;26723;57.478;12.066;2023-06-22T05:32:10;18.40;99.90
40996;DHT22;26723;57.478;12.066;2023-06-22T05:35:19;18.50;99.90
40996;DHT22;26723;57.478;12.066;2023-06-22T05:38:27;18.60;99.90
40996;DHT22;26723;57.478;12.066;2023-06-22T05:41:36;18.50;99.90
40996;DHT22;26723;57.478;12.066;2023-06-22T05:44:46;18.50;99.90
40996;DHT22;26723;57.478;12.066;2023-06-22T05:47:54;18.60;99.90
40996;DHT22;26723;57.478;12.066;2023-06-22T05:51:03;18.80;99.90
40996;DHT22;26723;57.478;12.066;2023-06-22T05:54:11;18.60;99.90
40996;DHT22;26723;57.478;12.066;2023-06-22T05:57:22;18.80;99.90
40996;DHT22;26723;57.478;12.066;2023-06-22T06:00:32;18.90;99.90
40996;DHT22;26723;57.478;12.066;2023-06-22T06:03:41;18.90;99.90
40996;DHT22;26723;57.478;12.066;2023-06-22T06:06:50;18.80;99.90
40996;DHT22;26723;57.478;12.066;2023-06-22T06:09:58;18.90;99.90
40996;DHT22;26723;57.478;12.066;2023-06-22T06:13:07;19.00;99.90
40996;DHT22;26723;57.478;12.066;2023-06-22T06:16:16;19.00;99.90
40996;DHT22;26723;57.478;12.066;2023-06-22T06:19:25;18.90;99.90
40996;DHT22;26723;57.478;12.066;2023-06-22T06:22:33;19.00;99.90
40996;DHT22;26723;57.478;12.066;2023-06-22T06:25:42;19.10;99.90
40996;DHT22;26723;57.478;12.066;2023-06-22T06:28:50;19.10;99.90
40996;DHT22;26723;57.478;12.066;2023-06-22T06:32:00;19.20;99.90
40996;DHT22;26723;57.478;12.066;2023-06-22T06:35:09;19.20;99.90
40996;DHT22;26723;57.478;12.066;2023-06-22T06:38:18;19.20;99.90
40996;DHT22;26723;57.478;12.066;2023-06-22T06:41:26;19.20;99.90
40996;DHT22;26723;57.478;12.066;2023-06-22T06:44:35;19.80;99.90
40996;DHT22;26723;57.478;12.066;2023-06-22T06:47:46;19.90;99.90
40996;DHT22;26723;57.478;12.066;2023-06-22T06:50:55;19.80;99.90
40996;DHT22;26723;57.478;12.066;2023-06-22T06:54:03;20.40;99.90
40996;DHT22;26723;57.478;12.066;2023-06-22T06:57:12;20.20;99.90
40996;DHT22;26723;57.478;12.066;2023-06-22T07:00:22;20.30;99.90
40996;DHT22;26723;57.478;12.066;2023-06-22T07:03:32;20.70;99.90
40996;DHT22;26723;57.478;12.066;2023-06-22T07:06:40;21.00;99.90
40996;DHT22;26723;57.478;12.066;2023-06-22T07:09:50;21.20;99.90
40996;DHT22;26723;57.478;12.066;2023-06-22T07:12:58;21.60;99.90
40996;DHT22;26723;57.478;12.066;2023-06-22T07:16:06;21.60;99.90
40996;DHT22;26723;57.478;12.066;2023-06-22T07:19:16;21.50;99.90
40996;DHT22;26723;57.478;12.066;2023-06-22T07:22:32;22.50;99.90
40996;DHT22;26723;57.478;12.066;2023-06-22T07:25:40;23.40;99.90
40996;DHT22;26723;57.478;12.066;2023-06-22T07:28:49;23.50;99.90
40996;DHT22;26723;57.478;12.066;2023-06-22T07:31:57;23.10;99.90
40996;DHT22;26723;57.478;12.066;2023-06-22T07:35:09;23.10;99.90
40996;DHT22;26723;57.478;12.066;2023-06-22T07:38:17;23.60;99.90
40996;DHT22;26723;57.478;12.066;2023-06-22T07:41:26;23.60;99.90
40996;DHT22;26723;57.478;12.066;2023-06-22T07:44:34;23.30;99.90
40996;DHT22;26723;57.478;12.066;2023-06-22T07:47:43;23.70;99.90
40996;DHT22;26723;57.478;12.066;2023-06-22T07:50:53;24.00;99.90
40996;DHT22;26723;57.478;12.066;2023-06-22T07:54:01;23.80;99.90
40996;DHT22;26723;57.478;12.066;2023-06-22T07:57:10;23.50;99.90
40996;DHT22;26723;57.478;12.066;2023-06-22T08:00:19;23.80;99.90
40996;DHT22;26723;57.478;12.066;2023-06-22T08:03:27;24.30;99.90
40996;DHT22;26723;57.478;12.066;2023-06-22T08:06:37;23.90;99.90
40996;DHT22;26723;57.478;12.066;2023-06-22T08:09:47;23.80;99.90
40996;DHT22;26723;57.478;12.066;2023-06-22T08:12:56;25.00;99.90
40996;DHT22;26723;57.478;12.066;2023-06-22T08:16:05;25.50;99.90
40996;DHT22;26723;57.478;12.066;2023-06-22T08:19:14;24.80;99.90
40996;DHT22;26723;57.478;12.066;2023-06-22T08:22:24;25.50;99.90
40996;DHT22;26723;57.478;12.066;2023-06-22T08:25:33;26.20;99.90
40996;DHT22;26723;57.478;12.066;2023-06-22T08:28:42;26.10;99.90
40996;DHT22;26723;57.478;12.066;2023-06-22T08:31:50;25.70;99.90
40996;DHT22;26723;57.478;12.066;2023-06-22T08:34:59;26.00;99.90
40996;DHT22;26723;57.478;12.066;2023-06-22T08:38:10;25.90;99.90
40996;DHT22;26723;57.478;12.066;2023-06-22T08:41:22;26.10;99.90
40996;DHT22;26723;57.478;12.066;2023-06-22T08:44:32;26.00;99.90
40996;DHT22;26723;57.478;12.066;2023-06-22T08:47:41;26.40;99.90
40996;DHT22;26723;57.478;12.066;2023-06-22T08:50:50;25.90;99.90
40996;DHT22;26723;57.478;12.066;2023-06-22T08:54:05;26.00;99.90
40996;DHT22;26723;57.478;12.066;2023-06-22T08:57:14;25.70;99.90
40996;DHT22;26723;57.478;12.066;2023-06-22T09:00:23;25.60;99.90
40996;DHT22;26723;57.478;12.066;2023-06-22T09:03:31;26.40;99.90
40996;DHT22;26723;57.478;12.066;2023-06-22T09:06:43;26.30;99.90
40996;DHT22;26723;57.478;12.066;2023-06-22T09:09:55;26.40;99.90
40996;DHT22;26723;57.478;12.066;2023-06-22T09:13:04;25.20;99.90
40996;DHT22;26723;57.478;12.066;2023-06-22T09:16:13;25.20;99.90
40996;DHT22;26723;57.478;12.066;2023-06-22T09:19:21;25.00;99.90
40996;DHT22;26723;57.478;12.066;2023-06-22T09:22:30;24.80;99.90
40996;DHT22;26723;57.478;12.066;2023-06-22T09:25:40;24.70;99.90
40996;DHT22;26723;57.478;12.066;2023-06-22T09:28:49;25.20;99.90
40996;DHT22;26723;57.478;12.066;2023-06-22T09:31:57;25.20;99.90
40996;DHT22;26723;57.478;12.066;2023-06-22T09:35:07;24.70;99.90
40996;DHT22;26723;57.478;12.066;2023-06-22T09:38:18;24.50;99.90
40996;DHT22;26723;57.478;12.066;2023-06-22T09:41:28;24.10;99.90
40996;DHT22;26723;57.478;12.066;2023-06-22T09:44:37;24.60;99.90
40996;DHT22;26723;57.478;12.066;2023-06-22T09:47:46;24.50;99.90
40996;DHT22;26723;57.478;12.066;2023-06-22T09:50:55;24.40;99.90
40996;DHT22;26723;57.478;12.066;2023-06-22T09:54:03;24.80;99.90
40996;DHT22;26723;57.478;12.066;2023-06-22T09:57:13;25.40;99.90
40996;DHT22;26723;57.478;12.066;2023-06-22T10:00:22;24.50;99.90
40996;DHT22;26723;57.478;12.066;2023-06-22T10:03:30;24.90;99.90
40996;DHT22;26723;57.478;12.066;2023-06-22T10:06:39;24.60;99.90
40996;DHT22;26723;57.478;12.066;2023-06-22T10:09:48;25.20;99.90
40996;DHT22;26723;57.478;12.066;2023-06-22T10:13:02;24.50;99.90
40996;DHT22;26723;57.478;12.066;2023-06-22T10:16:11;23.90;99.90
40996;DHT22;26723;57.478;12.066;2023-06-22T10:19:19;23.90;99.90
40996;DHT22;26723;57.478;12.066;2023-06-22T10:22:28;24.50;99.90
40996;DHT22;26723;57.478;12.066;2023-06-22T10:25:36;24.60;99.90
40996;DHT22;26723;57.478;12.066;2023-06-22T10:28:46;24.40;99.90
40996;DHT22;26723;57.478;12.066;2023-06-22T10:31:56;24.30;99.90
40996;DHT22;26723;57.478;12.066;2023-06-22T10:35:05;24.00;99.90
40996;DHT22;26723;57.478;12.066;2023-06-22T10:38:14;24.00;99.90
40996;DHT22;26723;57.478;12.066;2023-06-22T10:41:23;23.60;99.90
40996;DHT22;26723;57.478;12.066;2023-06-22T10:44:33;23.90;99.90
40996;DHT22;26723;57.478;12.066;2023-06-22T10:47:42;24.00;99.90
40996;DHT22;26723;57.478;12.066;2023-06-22T10:50:50;23.60;99.90
40996;DHT22;26723;57.478;12.066;2023-06-22T10:54:00;23.70;99.90
40996;DHT22;26723;57.478;12.066;2023-06-22T10:57:08;23.80;99.90
40996;DHT22;26723;57.478;12.066;2023-06-22T11:00:19;23.80;99.90
40996;DHT22;26723;57.478;12.066;2023-06-22T11:03:28;23.60;99.90
40996;DHT22;26723;57.478;12.066;2023-06-22T11:06:37;23.80;99.90
40996;DHT22;26723;57.478;12.066;2023-06-22T11:09:46;24.10;99.90
40996;DHT22;26723;57.478;12.066;2023-06-22T11:12:54;24.20;99.90
40996;DHT22;26723;57.478;12.066;2023-06-22T11:16:06;24.60;99.90
40996;DHT22;26723;57.478;12.066;2023-06-22T11:19:15;24.10;99.90
40996;DHT22;26723;57.478;12.066;2023-06-22T11:22:23;23.90;99.90
40996;DHT22;26723;57.478;12.066;2023-06-22T11:25:32;23.80;99.90
40996;DHT22;26723;57.478;12.066;2023-06-22T11:28:42;23.80;99.90
40996;DHT22;26723;57.478;12.066;2023-06-22T11:31:52;23.90;99.90
40996;DHT22;26723;57.478;12.066;2023-06-22T11:35:00;24.20;99.90
40996;DHT22;26723;57.478;12.066;2023-06-22T11:38:09;24.20;99.90
40996;DHT22;26723;57.478;12.066;2023-06-22T11:41:17;24.20;99.90
40996;DHT22;26723;57.478;12.066;2023-06-22T11:44:26;24.20;99.90
40996;DHT22;26723;57.478;12.066;2023-06-22T11:47:36;24.00;99.90
40996;DHT22;26723;57.478;12.066;2023-06-22T11:50:45;24.30;99.90
40996;DHT22;26723;57.478;12.066;2023-06-22T11:53:53;24.00;99.90
40996;DHT22;26723;57.478;12.066;2023-06-22T11:57:02;23.80;99.90
40996;DHT22;26723;57.478;12.066;2023-06-22T12:00:12;23.60;99.90
40996;DHT22;26723;57.478;12.066;2023-06-22T12:03:24;23.40;99.90
40996;DHT22;26723;57.478;12.066;2023-06-22T12:06:33;23.60;99.90
40996;DHT22;26723;57.478;12.066;2023-06-22T12:09:45;23.80;99.90
40996;DHT22;26723;57.478;12.066;2023-06-22T12:12:53;23.80;99.90
40996;DHT22;26723;57.478;12.066;2023-06-22T12:16:02;23.60;99.90
40996;DHT22;26723;57.478;12.066;2023-06-22T12:19:12;23.90;99.90
40996;DHT22;26723;57.478;12.066;2023-06-22T12:22:21;23.90;99.90
40996;DHT22;26723;57.478;12.066;2023-06-22T12:25:29;23.80;99.90
40996;DHT22;26723;57.478;12.066;2023-06-22T12:28:38;23.60;99.90
40996;DHT22;26723;57.478;12.066;2023-06-22T12:31:46;23.70;99.90
40996;DHT22;26723;57.478;12.066;2023-06-22T12:34:56;23.40;99.90
40996;DHT22;26723;57.478;12.066;2023-06-22T12:38:05;23.10;99.90
40996;DHT22;26723;57.478;12.066;2023-06-22T12:41:15;23.10;99.90
40996;DHT22;26723;57.478;12.066;2023-06-22T12:44:23;23.00;99.90
40996;DHT22;26723;57.478;12.066;2023-06-22T12:47:32;23.10;99.90
40996;DHT22;26723;57.478;12.066;2023-06-22T12:50:42;23.40;99.90
40996;DHT22;26723;57.478;12.066;2023-06-22T12:53:51;23.60;99.90
40996;DHT22;26723;57.478;12.066;2023-06-22T12:56:59;23.50;99.90
40996;DHT22;26723;57.478;12.066;2023-06-22T13:00:09;23.50;99.90
40996;DHT22;26723;57.478;12.066;2023-06-22T13:03:18;23.50;99.90
40996;DHT22;26723;57.478;12.066;2023-06-22T13:06:28;23.60;99.90
40996;DHT22;26723;57.478;12.066;2023-06-22T13:09:37;23.50;99.90
40996;DHT22;26723;57.478;12.066;2023-06-22T13:12:46;23.70;99.90
40996;DHT22;26723;57.478;12.066;2023-06-22T13:15:54;23.40;99.90
40996;DHT22;26723;57.478;12.066;2023-06-22T13:19:03;23.50;99.90
40996;DHT22;26723;57.478;12.066;2023-06-22T13:22:28;23.60;99.90
40996;DHT22;26723;57.478;12.066;2023-06-22T13:25:57;23.70;99.90
40996;DHT22;26723;57.478;12.066;2023-06-22T13:29:07;23.50;99.90
40996;DHT22;26723;57.478;12.066;2023-06-22T13:32:16;23.50;99.90
40996;DHT22;26723;57.478;12.066;2023-06-22T13:35:25;23.50;99.90
40996;DHT22;26723;57.478;12.066;2023-06-22T13:38:35;23.60;99.90
40996;DHT22;26723;57.478;12.066;2023-06-22T13:41:45;23.60;99.90
40996;DHT22;26723;57.478;12.066;2023-06-22T13:44:54;23.60;99.90
40996;DHT22;26723;57.478;12.066;2023-06-22T13:48:03;23.50;99.90
40996;DHT22;26723;57.478;12.066;2023-06-22T13:51:12;23.40;99.90
40996;DHT22;26723;57.478;12.066;2023-06-22T13:54:22;23.40;99.90
40996;DHT22;26723;57.478;12.066;2023-06-22T13:57:36;23.40;99.90
40996;DHT22;26723;57.478;12.066;2023-06-22T14:00:46;23.40;99.90
40996;DHT22;26723;57.478;12.066;2023-06-22T14:03:55;23.40;99.90
40996;DHT22;26723;57.478;12.066;2023-06-22T14:07:04;23.50;99.90
40996;DHT22;26723;57.478;12.066;2023-06-22T14:10:14;23.50;99.90
40996;DHT22;26723;57.478;12.066;2023-06-22T14:13:23;23.40;99.90
40996;DHT22;26723;57.478;12.066;2023-06-22T14:16:32;23.40;99.90
40996;DHT22;26723;57.478;12.066;2023-06-22T14:19:40;23.40;99.90
40996;DHT22;26723;57.478;12.066;2023-06-22T14:22:49;23.50;99.90
40996;DHT22;26723;57.478;12.066;2023-06-22T14:25:59;23.40;99.90
40996;DHT22;26723;57.478;12.066;2023-06-22T14:29:08;23.40;99.90
40996;DHT22;26723;57.478;12.066;2023-06-22T14:32:16;23.40;99.90
40996;DHT22;26723;57.478;12.066;2023-06-22T14:35:25;23.50;99.90
40996;DHT22;26723;57.478;12.066;2023-06-22T14:38:34;23.60;99.90
40996;DHT22;26723;57.478;12.066;2023-06-22T14:41:44;23.50;99.90
40996;DHT22;26723;57.478;12.066;2023-06-22T14:44:53;23.60;99.90
40996;DHT22;26723;57.478;12.066;2023-06-22T14:48:01;23.70;99.90
40996;DHT22;26723;57.478;12.066;2023-06-22T14:51:11;23.60;99.90
40996;DHT22;26723;57.478;12.066;2023-06-22T14:54:23;23.50;99.90
40996;DHT22;26723;57.478;12.066;2023-06-22T14:57:33;23.40;99.90
40996;DHT22;26723;57.478;12.066;2023-06-22T15:00:41;23.30;99.90
40996;DHT22;26723;57.478;12.066;2023-06-22T15:03:50;23.20;99.90
40996;DHT22;26723;57.478;12.066;2023-06-22T15:06:59;23.20;99.90
40996;DHT22;26723;57.478;12.066;2023-06-22T15:10:09;23.20;99.90
40996;DHT22;26723;57.478;12.066;2023-06-22T15:13:19;23.20;99.90
40996;DHT22;26723;57.478;12.066;2023-06-22T15:16:28;23.20;99.90
40996;DHT22;26723;57.478;12.066;2023-06-22T15:19:37;23.20;99.90
40996;DHT22;26723;57.478;12.066;2023-06-22T15:22:45;23.20;99.90
40996;DHT22;26723;57.478;12.066;2023-06-22T15:25:54;23.10;99.90
40996;DHT22;26723;57.478;12.066;2023-06-22T15:29:04;23.10;99.90
40996;DHT22;26723;57.478;12.066;2023-06-22T15:32:13;23.00;99.90
40996;DHT22;26723;57.478;12.066;2023-06-22T15:35:22;23.00;99.90
40996;DHT22;26723;57.478;12.066;2023-06-22T15:38:30;23.00;99.90
40996;DHT22;26723;57.478;12.066;2023-06-22T15:41:40;23.00;99.90
40996;DHT22;26723;57.478;12.066;2023-06-22T15:44:50;23.00;99.90
40996;DHT22;26723;57.478;12.066;2023-06-22T15:47:59;22.90;99.90
40996;DHT22;26723;57.478;12.066;2023-06-22T15:51:07;22.90;99.90
40996;DHT22;26723;57.478;12.066;2023-06-22T15:54:16;22.80;99.90
40996;DHT22;26723;57.478;12.066;2023-06-22T15:57:25;22.80;99.90
40996;DHT22;26723;57.478;12.066;2023-06-22T16:00:35;22.80;99.90
40996;DHT22;26723;57.478;12.066;2023-06-22T16:03:44;22.80;99.90
40996;DHT22;26723;57.478;12.066;2023-06-22T16:06:53;22.70;99.90
40996;DHT22;26723;57.478;12.066;2023-06-22T16:10:02;22.70;99.90
40996;DHT22;26723;57.478;12.066;2023-06-22T16:13:10;22.60;99.90
40996;DHT22;26723;57.478;12.066;2023-06-22T16:16:20;23.00;99.90
40996;DHT22;26723;57.478;12.066;2023-06-22T16:19:29;23.60;99.90
40996;DHT22;26723;57.478;12.066;2023-06-22T16:22:37;23.70;99.90
40996;DHT22;26723;57.478;12.066;2023-06-22T16:25:46;23.40;99.90
40996;DHT22;26723;57.478;12.066;2023-06-22T16:28:55;23.40;99.90
40996;DHT22;26723;57.478;12.066;2023-06-22T16:32:06;23.30;99.90
40996;DHT22;26723;57.478;12.066;2023-06-22T16:35:16;23.40;99.90
40996;DHT22;26723;57.478;12.066;2023-06-22T16:38:25;23.30;99.90
40996;DHT22;26723;57.478;12.066;2023-06-22T16:41:34;23.50;99.90
40996;DHT22;26723;57.478;12.066;2023-06-22T16:44:43;23.40;99.90
40996;DHT22;26723;57.478;12.066;2023-06-22T16:47:53;23.40;99.90
40996;DHT22;26723;57.478;12.066;2023-06-22T16:51:02;23.50;99.90
40996;DHT22;26723;57.478;12.066;2023-06-22T16:54:11;23.30;99.90
40996;DHT22;26723;57.478;12.066;2023-06-22T16:57:20;23.40;99.90
40996;DHT22;26723;57.478;12.066;2023-06-22T17:00:33;23.10;99.90
40996;DHT22;26723;57.478;12.066;2023-06-22T17:03:54;23.00;99.90
40996;DHT22;26723;57.478;12.066;2023-06-22T17:07:09;23.00;99.90
40996;DHT22;26723;57.478;12.066;2023-06-22T17:10:20;23.00;99.90
40996;DHT22;26723;57.478;12.066;2023-06-22T17:13:30;23.00;99.90
40996;DHT22;26723;57.478;12.066;2023-06-22T17:16:42;23.00;99.90
40996;DHT22;26723;57.478;12.066;2023-06-22T17:19:55;22.90;99.90
40996;DHT22;26723;57.478;12.066;2023-06-22T17:23:04;23.00;99.90
40996;DHT22;26723;57.478;12.066;2023-06-22T17:26:14;22.80;99.90
40996;DHT22;26723;57.478;12.066;2023-06-22T17:29:28;22.90;99.90
40996;DHT22;26723;57.478;12.066;2023-06-22T17:32:40;22.80;99.90
40996;DHT22;26723;57.478;12.066;2023-06-22T17:35:55;22.80;99.90
40996;DHT22;26723;57.478;12.066;2023-06-22T17:39:10;22.70;99.90
40996;DHT22;26723;57.478;12.066;2023-06-22T17:42:22;22.70;99.90
40996;DHT22;26723;57.478;12.066;2023-06-22T17:45:32;22.80;99.90
40996;DHT22;26723;57.478;12.066;2023-06-22T17:48:49;22.90;99.90
40996;DHT22;26723;57.478;12.066;2023-06-22T17:52:00;23.00;99.90
40996;DHT22;26723;57.478;12.066;2023-06-22T17:55:10;22.60;99.90
40996;DHT22;26723;57.478;12.066;2023-06-22T17:58:18;22.30;99.90
40996;DHT22;26723;57.478;12.066;2023-06-22T18:01:32;22.50;99.90
40996;DHT22;26723;57.478;12.066;2023-06-22T18:04:43;22.50;99.90
40996;DHT22;26723;57.478;12.066;2023-06-22T18:07:53;22.50;99.90
40996;DHT22;26723;57.478;12.066;2023-06-22T18:11:04;22.40;99.90
40996;DHT22;26723;57.478;12.066;2023-06-22T18:14:16;22.20;99.90
40996;DHT22;26723;57.478;12.066;2023-06-22T18:17:25;22.10;99.90
40996;DHT22;26723;57.478;12.066;2023-06-22T18:20:34;22.00;99.90
40996;DHT22;26723;57.478;12.066;2023-06-22T18:23:46;22.00;99.90
40996;DHT22;26723;57.478;12.066;2023-06-22T18:26:55;22.00;99.90
40996;DHT22;26723;57.478;12.066;2023-06-22T18:30:05;21.80;99.90
40996;DHT22;26723;57.478;12.066;2023-06-22T18:33:14;21.80;99.90
40996;DHT22;26723;57.478;12.066;2023-06-22T18:36:26;21.70;99.90
40996;DHT22;26723;57.478;12.066;2023-06-22T18:39:38;21.70;99.90
40996;DHT22;26723;57.478;12.066;2023-06-22T18:42:48;21.60;99.90
40996;DHT22;26723;57.478;12.066;2023-06-22T18:46:29;21.50;99.90
40996;DHT22;26723;57.478;12.066;2023-06-22T18:49:47;21.50;99.90
40996;DHT22;26723;57.478;12.066;2023-06-22T18:53:02;21.50;99.90
40996;DHT22;26723;57.478;12.066;2023-06-22T18:56:14;21.30;99.90
40996;DHT22;26723;57.478;12.066;2023-06-22T18:59:42;21.30;99.90
40996;DHT22;26723;57.478;12.066;2023-06-22T19:02:58;21.40;99.90
40996;DHT22;26723;57.478;12.066;2023-06-22T19:06:07;21.20;99.90
40996;DHT22;26723;57.478;12.066;2023-06-22T19:09:17;21.20;99.90
40996;DHT22;26723;57.478;12.066;2023-06-22T19:12:28;21.10;99.90
40996;DHT22;26723;57.478;12.066;2023-06-22T19:15:39;20.90;99.90
40996;DHT22;26723;57.478;12.066;2023-06-22T19:18:49;20.80;99.90
40996;DHT22;26723;57.478;12.066;2023-06-22T19:22:02;20.60;99.90
40996;DHT22;26723;57.478;12.066;2023-06-22T19:25:21;20.60;99.90
40996;DHT22;26723;57.478;12.066;2023-06-22T19:28:31;20.40;99.90
40996;DHT22;26723;57.478;12.066;2023-06-22T19:31:42;20.40;99.90
40996;DHT22;26723;57.478;12.066;2023-06-22T19:34:53;20.30;99.90
40996;DHT22;26723;57.478;12.066;2023-06-22T19:38:01;20.30;99.90
40996;DHT22;26723;57.478;12.066;2023-06-22T19:41:10;20.20;99.90